Time;durP1;ratioP1;P1;durP2;ratioP2;P2;SDS_P1;SDS_P2;PMS_P1;PMS_P2;Temp;Humidity;BMP_temperature;BMP_pressure;BME280_temperature;BME280_humidity;BME280_pressure;Samples;Min_cycle;Max_cycle;Signal;HPM_P1;HPM_P2
2022/08/20 00:02:13;;;;;;;1.87;1.77;;;;;;;22.61;53.96;96717.31;10317387;28;20317;-30
2022/08/20 00:07:13;;;;;;;2.90;2.70;;;;;;;22.50;54.07;96734.47;10320972;28;20117;-29
2022/08/20 00:12:16;;;;;;;2.70;2.50;;;;;;;22.45;54.10;96725.22;10324183;28;20045;-29
2022/08/20 00:17:16;;;;;;;2.05;1.95;;;;;;;22.42;54.18;96726.13;10322600;28;20386;-29
2022/08/20 00:22:17;;;;;;;3.28;3.05;;;;;;;22.41;54.20;96729.50;10321374;28;20034;-29
2022/08/20 00:27:17;;;;;;;3.33;3.13;;;;;;;22.41;54.22;96724.41;10323489;28;20034;-30
2022/08/20 00:32:18;;;;;;;3.57;3.30;;;;;;;22.40;54.24;96725.25;10324636;28;20037;-30
2022/08/20 00:37:18;;;;;;;3.20;2.97;;;;;;;22.42;54.70;96730.38;10326337;28;20159;-31
2022/08/20 00:42:18;;;;;;;3.40;3.20;;;;;;;22.63;54.47;96725.78;10330222;28;20764;-30
2022/08/20 00:47:19;;;;;;;2.60;2.40;;;;;;;22.55;53.67;96708.91;10329676;28;20515;-29
2022/08/20 00:52:20;;;;;;;2.30;2.10;;;;;;;22.52;54.05;96724.25;10325693;28;20564;-29
2022/08/20 00:57:25;;;;;;;3.22;2.92;;;;;;;22.47;54.17;96729.44;10329859;28;20042;-29
2022/08/20 01:02:27;;;;;;;3.00;2.80;;;;;;;22.43;54.12;96724.41;10323709;28;20544;-30
2022/08/20 01:07:33;;;;;;;2.95;2.75;;;;;;;22.41;54.20;96721.88;10327427;28;20061;-29
2022/08/20 01:12:36;;;;;;;3.20;2.97;;;;;;;22.39;54.31;96728.69;10322730;28;20448;-30
2022/08/20 01:17:44;;;;;;;3.13;2.92;;;;;;;22.38;54.32;96724.44;10325775;28;20489;-29
2022/08/20 01:28:15;;;;;;;3.25;3.00;;;;;;;22.63;54.35;96738.53;10327553;28;20045;-29
2022/08/20 01:33:21;;;;;;;2.10;2.00;;;;;;;22.61;53.68;96739.41;10323278;28;20082;-29
2022/08/20 01:38:21;;;;;;;2.78;2.58;;;;;;;22.49;54.07;96740.44;10322096;28;20042;-30
2022/08/20 01:43:23;;;;;;;3.13;2.92;;;;;;;22.46;54.08;96735.41;10329754;28;20111;-29
2022/08/20 01:48:23;;;;;;;3.10;2.90;;;;;;;22.44;54.23;96739.69;10326477;28;20121;-29
2022/08/20 01:53:32;;;;;;;3.17;2.97;;;;;;;22.44;54.05;96741.41;10323107;28;20107;-29
2022/08/20 01:58:36;;;;;;;3.20;3.00;;;;;;;22.41;54.15;96739.72;10328723;28;20042;-29
2022/08/20 02:03:37;;;;;;;3.15;2.95;;;;;;;22.41;54.33;96737.16;10322641;28;20109;-29
2022/08/20 02:08:37;;;;;;;3.67;3.37;;;;;;;22.41;54.60;96734.63;10325289;28;20075;-30
2022/08/20 02:13:39;;;;;;;3.80;3.50;;;;;;;22.64;54.33;96745.31;10328629;28;20200;-29
2022/08/20 02:18:39;;;;;;;1.90;1.80;;;;;;;22.59;53.79;96749.69;10325778;28;20045;-29
2022/08/20 02:23:40;;;;;;;2.45;2.25;;;;;;;22.49;54.15;96748.09;10324480;28;20045;-29
2022/08/20 02:28:40;;;;;;;2.60;2.40;;;;;;;22.42;54.07;96741.44;10328229;28;20027;-29
2022/08/20 02:33:41;;;;;;;2.17;2.07;;;;;;;22.39;54.20;96738.88;10326901;28;20030;-30
2022/08/20 02:38:41;;;;;;;4.15;2.67;;;;;;;22.39;54.21;96745.72;10319842;28;20038;-29
2022/08/20 02:43:42;;;;;;;3.50;3.23;;;;;;;22.39;54.17;96743.97;10327412;28;20421;-30
2022/08/20 02:48:43;;;;;;;3.42;3.15;;;;;;;22.40;54.14;96743.13;10324385;28;20031;-30
2022/08/20 02:53:44;;;;;;;2.90;2.70;;;;;;;22.40;54.46;96735.47;10322837;28;20543;-29
2022/08/20 02:58:45;;;;;;;3.53;3.23;;;;;;;22.60;54.28;96725.84;10326076;28;20073;-31
2022/08/20 03:03:45;;;;;;;1.95;1.85;;;;;;;22.58;53.92;96730.09;10324242;28;20041;-30
2022/08/20 03:08:46;;;;;;;2.83;2.63;;;;;;;22.46;54.08;96722.66;10324620;28;20512;-29
2022/08/20 03:13:46;;;;;;;2.77;2.57;;;;;;;22.35;54.15;96714.28;10325755;28;20290;-29
2022/08/20 03:18:47;;;;;;;2.80;2.60;;;;;;;22.39;54.23;96715.91;10321792;28;20304;-29
2022/08/20 03:23:48;;;;;;;3.00;2.80;;;;;;;22.38;54.38;96709.13;10322677;28;20105;-29
2022/08/20 03:28:48;;;;;;;3.38;3.08;;;;;;;22.35;54.30;96716.84;10325253;28;20154;-29
2022/08/20 03:33:48;;;;;;;2.77;2.43;;;;;;;22.34;54.19;96712.63;10324423;28;20045;-30
2022/08/20 03:38:49;;;;;;;3.20;2.90;;;;;;;22.36;54.41;96712.56;10317586;28;20046;-30
2022/08/20 03:43:49;;;;;;;2.70;2.50;;;;;;;22.56;54.28;96703.78;10324859;28;20660;-29
2022/08/20 03:48:51;;;;;;;2.10;2.00;;;;;;;22.57;53.91;96714.84;10321672;28;20035;-29
2022/08/20 03:53:52;;;;;;;2.70;2.50;;;;;;;22.46;54.16;96716.69;10319309;28;20050;-30
2022/08/20 03:58:53;;;;;;;2.27;2.17;;;;;;;22.39;54.28;96726.13;10325104;28;20034;-29
2022/08/20 04:03:53;;;;;;;2.40;2.20;;;;;;;22.36;54.33;96715.97;10318577;28;20044;-31
2022/08/20 04:08:54;;;;;;;2.53;2.33;;;;;;;22.35;54.28;96714.28;10320780;28;20165;-30
2022/08/20 04:13:55;;;;;;;3.03;2.72;;;;;;;22.35;54.10;96723.66;10324268;28;20526;-29
2022/08/20 04:18:55;;;;;;;2.80;2.60;;;;;;;22.35;54.28;96724.50;10321026;28;20041;-30
2022/08/20 04:23:57;;;;;;;3.10;2.67;;;;;;;22.38;54.45;96718.47;10321344;28;20031;-29
2022/08/20 04:28:57;;;;;;;2.83;2.63;;;;;;;22.50;54.26;96703.84;10324264;28;20034;-30
2022/08/20 04:34:00;;;;;;;1.90;1.80;;;;;;;22.58;53.83;96712.22;10324370;28;20447;-29
2022/08/20 04:39:01;;;;;;;2.78;2.58;;;;;;;22.45;54.04;96728.63;10317272;28;20034;-30
2022/08/20 04:44:01;;;;;;;2.85;2.65;;;;;;;22.38;54.21;96734.66;10323772;28;20030;-30
2022/08/20 04:49:03;;;;;;;2.40;2.20;;;;;;;22.34;54.20;96738.13;10321564;28;20031;-30
2022/08/20 04:54:04;;;;;;;2.20;2.05;;;;;;;22.35;54.43;96741.50;10318207;28;20034;-30
2022/08/20 04:59:05;;;;;;;2.30;2.13;;;;;;;22.31;54.54;96745.81;10323446;28;20034;-29
2022/08/20 05:04:05;;;;;;;2.10;2.00;;;;;;;22.31;54.49;96748.34;10322167;28;20121;-29
2022/08/20 05:09:05;;;;;;;2.90;2.40;;;;;;;22.33;54.49;96748.34;10320461;28;20041;-30
2022/08/20 05:14:07;;;;;;;3.20;3.00;;;;;;;22.55;54.31;96754.84;10322805;28;20048;-30
2022/08/20 05:19:10;;;;;;;1.85;1.75;;;;;;;22.56;53.96;96757.34;10316624;28;20042;-30
2022/08/20 05:24:11;;;;;;;2.20;2.10;;;;;;;22.41;54.15;96765.25;10326989;28;20038;-30
2022/08/20 05:29:12;;;;;;;4.38;2.22;;;;;;;22.37;54.23;96767.81;10329674;28;20479;-29
2022/08/20 05:34:12;;;;;;;1.90;1.80;;;;;;;22.32;54.30;96770.44;10328441;28;20030;-28
2022/08/20 05:39:13;;;;;;;1.90;1.80;;;;;;;22.32;54.31;96779.81;10328806;28;20158;-29
2022/08/20 05:44:13;;;;;;;3.25;2.25;;;;;;;22.31;54.43;96784.06;10329430;28;20285;-31
2022/08/20 05:49:18;;;;;;;2.35;2.20;;;;;;;22.31;54.28;96783.25;10328083;28;20030;-29
2022/08/20 05:54:20;;;;;;;2.65;2.45;;;;;;;22.31;54.48;96784.06;10323210;28;20584;-29
2022/08/20 05:59:21;;;;;;;2.88;2.67;;;;;;;22.54;54.38;96784.63;10328728;28;20413;-30
2022/08/20 06:04:26;;;;;;;1.98;1.88;;;;;;;22.55;54.27;96788.84;10321387;28;20117;-30
2022/08/20 06:09:28;;;;;;;2.30;2.20;;;;;;;22.41;54.24;96789.94;10325297;28;20041;-29
2022/08/20 06:14:29;;;;;;;2.55;2.35;;;;;;;22.36;54.30;96794.19;10328167;28;20108;-29
2022/08/20 06:19:30;;;;;;;1.65;1.55;;;;;;;22.33;54.33;96791.72;10324671;28;20034;-29
2022/08/20 06:24:30;;;;;;;1.97;1.87;;;;;;;22.31;54.37;96788.34;10326079;28;20042;-29
2022/08/20 06:29:32;;;;;;;2.27;2.10;;;;;;;22.31;54.32;96798.53;10327814;28;20081;-31
2022/08/20 06:34:32;;;;;;;2.15;1.95;;;;;;;22.30;54.36;96792.59;10325593;28;20293;-30
2022/08/20 06:39:32;;;;;;;2.53;2.33;;;;;;;22.31;54.51;96794.28;10320077;28;20039;-29
2022/08/20 06:44:33;;;;;;;2.43;2.23;;;;;;;22.51;54.41;96786.38;10327432;28;20475;-32
2022/08/20 06:49:35;;;;;;;2.03;1.93;;;;;;;22.50;53.85;96774.47;10324680;28;20547;-29
2022/08/20 06:54:35;;;;;;;2.30;2.10;;;;;;;22.41;54.12;96790.75;10320627;28;20034;-30
2022/08/20 06:59:36;;;;;;;1.80;1.70;;;;;;;22.37;54.45;96799.28;10326132;28;20034;-28
2022/08/20 07:04:36;;;;;;;3.73;2.50;;;;;;;22.33;54.32;96802.72;10325417;28;20100;-29
2022/08/20 07:09:36;;;;;;;2.23;2.00;;;;;;;22.31;54.42;96804.47;10324024;28;20034;-30
2022/08/20 07:14:37;;;;;;;2.30;2.10;;;;;;;22.32;54.38;96825.75;10326273;28;20048;-30
2022/08/20 07:19:38;;;;;;;1.70;1.50;;;;;;;22.30;54.81;96828.31;10318276;28;20205;-29
2022/08/20 07:24:38;;;;;;;2.40;2.17;;;;;;;22.30;54.39;96833.41;10323611;28;20592;-29
2022/08/20 07:34:57;;;;;;;1.80;1.70;;;;;;;22.55;53.96;96822.03;10323948;28;20097;-29
2022/08/20 07:39:58;;;;;;;2.07;1.97;;;;;;;22.34;54.06;96809.56;10316850;28;20042;-29
2022/08/20 07:44:58;;;;;;;2.97;2.20;;;;;;;22.34;54.42;96829.97;10322818;28;20031;-30
2022/08/20 07:49:58;;;;;;;1.73;1.50;;;;;;;22.32;54.35;96818.91;10324694;28;20428;-29
2022/08/20 07:54:59;;;;;;;2.30;2.10;;;;;;;22.31;54.48;96824.06;10319999;28;20030;-29
2022/08/20 07:59:59;;;;;;;2.27;2.17;;;;;;;22.32;54.44;96836.75;10323580;28;20157;-30
2022/08/20 08:05:00;;;;;;;2.30;2.10;;;;;;;22.31;54.46;96839.34;10324397;28;20030;-31
2022/08/20 08:10:04;;;;;;;2.83;2.53;;;;;;;22.34;54.52;96846.97;10322481;28;20898;-29
2022/08/20 08:15:08;;;;;;;2.70;2.50;;;;;;;22.50;54.37;96846.75;10324068;28;20038;-29
2022/08/20 08:20:11;;;;;;;2.25;2.08;;;;;;;22.55;53.89;96849.28;10321464;28;20057;-29
2022/08/20 08:25:15;;;;;;;2.30;2.10;;;;;;;22.43;54.26;96854.53;10321594;28;20076;-29
2022/08/20 08:30:16;;;;;;;2.03;1.92;;;;;;;22.35;54.37;96857.16;10323748;28;20081;-29
2022/08/20 08:35:16;;;;;;;1.90;1.80;;;;;;;22.33;54.30;96847.81;10322626;28;20138;-29
2022/08/20 08:40:17;;;;;;;2.50;2.30;;;;;;;22.33;54.42;96850.38;10316550;28;20038;-29
2022/08/20 08:45:19;;;;;;;2.38;2.20;;;;;;;22.32;54.62;96846.16;10323693;28;20681;-30
2022/08/20 08:50:32;;;;;;;2.72;2.53;;;;;;;22.33;54.39;96863.13;10322210;28;20031;-30
2022/08/20 08:55:32;;;;;;;2.85;2.65;;;;;;;22.32;54.44;96857.16;10321569;28;20509;-30
2022/08/20 09:00:34;;;;;;;2.33;2.13;;;;;;;22.51;54.41;96853.56;10331293;28;20034;-31
2022/08/20 09:05:59;;;;;;;2.10;2.00;;;;;;;22.53;54.02;96861.19;10324495;28;20337;-31
2022/08/20 09:11:06;;;;;;;2.00;1.90;;;;;;;22.42;54.15;96858.81;10324657;28;20026;-29
2022/08/20 09:16:06;;;;;;;;;;;;;;;22.32;54.29;96852.06;10329283;28;20037;-29
2022/08/20 09:21:08;;;;;;;2.58;2.38;;;;;;;22.35;54.57;96856.28;10327245;28;19920;-29
2022/08/20 09:26:09;;;;;;;2.38;2.17;;;;;;;22.35;54.32;96852.06;10328084;28;20039;-30
2022/08/20 09:31:09;;;;;;;2.40;2.20;;;;;;;22.34;54.41;96850.38;10327476;28;20501;-29
2022/08/20 09:36:09;;;;;;;2.53;2.33;;;;;;;22.34;54.32;96863.13;10329383;28;20065;-31
2022/08/20 09:41:10;;;;;;;2.57;2.37;;;;;;;22.33;54.42;96853.75;10322867;28;20034;-30
2022/08/20 09:46:10;;;;;;;2.13;2.03;;;;;;;22.51;54.09;96852.72;10329494;28;20129;-29
2022/08/20 09:51:11;;;;;;;2.00;1.90;;;;;;;22.53;53.96;96846.72;10322423;28;20030;-30
2022/08/20 09:56:12;;;;;;;1.73;1.63;;;;;;;22.45;54.05;96847.69;10322949;28;20038;-31
2022/08/20 10:01:15;;;;;;;2.25;2.10;;;;;;;22.39;54.15;96856.22;10329401;28;20046;-30
2022/08/20 10:06:19;;;;;;;2.05;1.95;;;;;;;22.37;54.19;96855.41;10325264;28;20404;-30
2022/08/20 10:11:19;;;;;;;2.50;2.30;;;;;;;22.36;54.39;96847.78;10326336;28;20109;-29
2022/08/20 10:16:19;;;;;;;2.03;1.93;;;;;;;22.38;54.25;96864.75;10324790;28;20038;-32
2022/08/20 10:21:20;;;;;;;2.27;2.07;;;;;;;22.36;54.25;96856.28;10328539;28;20368;-31
2022/08/20 10:26:20;;;;;;;2.55;2.35;;;;;;;22.36;54.31;96853.75;10324999;28;20034;-31
2022/08/20 10:31:20;;;;;;;2.27;2.07;;;;;;;22.45;54.18;96842.56;10324985;28;20403;-29
2022/08/20 10:36:21;;;;;;;1.50;1.40;;;;;;;22.57;53.84;96847.53;10327522;28;20492;-29
2022/08/20 10:41:21;;;;;;;1.75;1.65;;;;;;;22.45;54.05;96846.00;10323581;28;20301;-29
2022/08/20 10:46:22;;;;;;;1.67;1.57;;;;;;;22.40;54.15;96855.38;10324297;28;20036;-30
2022/08/20 10:51:22;;;;;;;2.30;2.10;;;;;;;22.37;54.19;96852.88;10327549;28;20034;-30
2022/08/20 10:56:22;;;;;;;1.88;1.77;;;;;;;22.34;54.32;96850.38;10325472;28;20035;-29
2022/08/20 11:01:23;;;;;;;1.93;1.83;;;;;;;22.33;54.26;96846.09;10326058;28;20034;-29
2022/08/20 11:06:23;;;;;;;2.00;1.90;;;;;;;22.31;54.23;96845.28;10326511;28;20029;-29
2022/08/20 11:11:23;;;;;;;1.80;1.70;;;;;;;22.35;54.45;96851.19;10323572;28;20050;-30
2022/08/20 11:16:24;;;;;;;2.23;2.10;;;;;;;22.50;54.38;96839.09;10322685;28;20038;-29
2022/08/20 11:21:24;;;;;;;1.40;1.30;;;;;;;22.56;53.78;96836.47;10327716;28;20034;-29
2022/08/20 11:26:25;;;;;;;1.77;1.67;;;;;;;22.41;54.14;96828.19;10323890;28;20033;-29
2022/08/20 11:31:26;;;;;;;1.70;1.60;;;;;;;22.37;54.30;96834.16;10321300;28;20050;-29
2022/08/20 11:36:26;;;;;;;1.83;1.73;;;;;;;22.33;54.13;96822.31;10325210;28;20033;-29
2022/08/20 11:41:27;;;;;;;1.23;1.17;;;;;;;22.31;54.37;96819.78;10322018;28;20065;-29
2022/08/20 11:46:27;;;;;;;1.60;1.50;;;;;;;22.30;54.31;96824.91;10323024;28;20515;-29
2022/08/20 11:51:28;;;;;;;1.50;1.40;;;;;;;22.27;54.47;96813.03;10325240;28;20061;-30
2022/08/20 11:56:28;;;;;;;1.92;1.83;;;;;;;22.20;54.41;96803.78;10317604;28;20412;-29
2022/08/20 12:01:28;;;;;;;1.90;1.80;;;;;;;22.48;54.36;96819.59;10321224;28;20516;-31
2022/08/20 12:06:30;;;;;;;1.50;1.40;;;;;;;22.54;53.84;96817.78;10323896;28;20034;-29
2022/08/20 12:11:30;;;;;;;1.60;1.50;;;;;;;22.43;53.99;96812.00;10321779;28;20056;-29
2022/08/20 12:16:30;;;;;;;1.70;1.60;;;;;;;22.34;54.00;96804.44;10317194;28;20543;-30
2022/08/20 12:21:31;;;;;;;1.88;1.70;;;;;;;22.36;54.30;96814.63;10324869;28;20129;-30
2022/08/20 12:26:31;;;;;;;1.80;1.70;;;;;;;22.32;54.36;96806.16;10320922;28;20057;-29
2022/08/20 12:31:31;;;;;;;1.77;1.67;;;;;;;22.29;54.51;96796.00;10328382;28;20043;-29
2022/08/20 12:36:32;;;;;;;2.30;2.10;;;;;;;22.28;54.48;96789.22;10332147;28;20033;-29
2022/08/20 12:41:32;;;;;;;2.20;2.10;;;;;;;22.33;54.28;96787.44;10328784;28;20339;-30
2022/08/20 12:46:32;;;;;;;2.00;1.90;;;;;;;22.51;54.34;96784.66;10331433;28;20038;-29
2022/08/20 12:51:35;;;;;;;1.47;1.37;;;;;;;22.56;53.81;96780.31;10329478;28;20042;-29
2022/08/20 12:56:35;;;;;;;1.50;1.40;;;;;;;22.46;54.32;96793.22;10329254;28;20439;-30
2022/08/20 13:01:35;;;;;;;1.60;1.50;;;;;;;22.41;54.15;96798.41;10328033;28;20087;-29
2022/08/20 13:06:36;;;;;;;1.90;1.80;;;;;;;22.37;54.19;96791.63;10330890;28;20030;-30
2022/08/20 13:11:36;;;;;;;1.80;1.70;;;;;;;22.31;54.20;96794.28;10328489;28;20042;-29
2022/08/20 13:16:37;;;;;;;1.73;1.63;;;;;;;22.37;54.41;96813.75;10324167;28;20038;-30
2022/08/20 13:21:37;;;;;;;1.80;1.70;;;;;;;22.39;54.38;96812.88;10330861;28;20464;-30
2022/08/20 13:26:37;;;;;;;2.10;2.00;;;;;;;22.38;54.29;96806.06;10329845;28;20298;-30
2022/08/20 13:31:39;;;;;;;2.03;1.93;;;;;;;22.53;54.31;96821.22;10332342;28;20351;-29
2022/08/20 13:36:39;;;;;;;1.30;1.20;;;;;;;22.55;53.98;96808.44;10331515;28;20509;-29
2022/08/20 13:41:40;;;;;;;1.40;1.30;;;;;;;22.47;54.16;96823.00;10326714;28;20030;-29
2022/08/20 13:46:40;;;;;;;1.40;1.30;;;;;;;22.39;54.17;96823.06;10327621;28;20496;-30
2022/08/20 13:51:40;;;;;;;1.30;1.20;;;;;;;22.36;54.39;96825.69;10332176;28;20284;-31
2022/08/20 13:56:41;;;;;;;1.70;1.60;;;;;;;22.34;54.26;96818.91;10329099;28;20038;-29
2022/08/20 14:01:41;;;;;;;1.70;1.60;;;;;;;22.33;54.42;96823.13;10327159;28;20309;-30
2022/08/20 14:06:41;;;;;;;1.63;1.38;;;;;;;22.30;54.39;96819.81;10328432;28;20041;-30
2022/08/20 14:11:42;;;;;;;1.70;1.60;;;;;;;22.37;54.67;96813.75;10327097;28;20042;-30
2022/08/20 14:16:42;;;;;;;1.53;1.43;;;;;;;22.47;54.37;96790.66;10327254;28;20297;-28
2022/08/20 14:21:42;;;;;;;1.40;1.30;;;;;;;22.63;53.96;96796.38;10328097;28;20049;-30
2022/08/20 14:26:43;;;;;;;1.83;1.73;;;;;;;22.50;54.02;96779.59;10325258;28;20026;-29
2022/08/20 14:31:43;;;;;;;1.80;1.70;;;;;;;22.60;53.99;96804.09;10325286;28;20416;-29
2022/08/20 14:36:44;;;;;;;1.70;1.60;;;;;;;22.59;54.19;96805.81;10326879;28;20122;-29
2022/08/20 14:41:44;;;;;;;1.67;1.57;;;;;;;22.58;54.29;96804.09;10324818;28;20097;-29
2022/08/20 14:46:45;;;;;;;1.80;1.70;;;;;;;22.58;54.40;96814.31;10326233;28;20041;-30
2022/08/20 14:51:45;;;;;;;1.70;1.60;;;;;;;22.58;54.42;96824.53;10326708;28;20035;-31
2022/08/20 14:56:45;;;;;;;1.60;1.50;;;;;;;22.57;54.68;96830.50;10320980;28;20042;-29
2022/08/20 15:01:46;;;;;;;1.63;1.53;;;;;;;22.65;54.32;96810.81;10325554;28;20117;-29
2022/08/20 15:06:46;;;;;;;1.38;1.27;;;;;;;22.70;53.94;96826.91;10325115;28;20026;-29
2022/08/20 15:11:47;;;;;;;1.40;1.30;;;;;;;22.64;54.15;96832.09;10325102;28;20109;-29
2022/08/20 15:16:47;;;;;;;1.55;1.45;;;;;;;22.62;54.40;96821.06;10324086;28;20037;-31
2022/08/20 15:21:48;;;;;;;1.57;1.47;;;;;;;22.62;54.35;96810.88;10325624;28;20073;-31
2022/08/20 15:26:48;;;;;;;1.73;1.63;;;;;;;22.60;54.57;96799.84;10323555;28;20415;-31
2022/08/20 15:31:49;;;;;;;1.80;1.70;;;;;;;22.56;54.39;96795.63;10323387;28;20104;-30
2022/08/20 15:36:50;;;;;;;1.73;1.63;;;;;;;22.44;54.42;96800.94;10323817;28;20034;-29
2022/08/20 15:41:50;;;;;;;1.60;1.50;;;;;;;22.37;54.44;96798.44;10323774;28;20042;-30
2022/08/20 15:46:50;;;;;;;1.50;1.40;;;;;;;22.52;54.48;96800.81;10323100;28;20034;-29
2022/08/20 15:51:51;;;;;;;1.70;1.60;;;;;;;22.63;54.19;96781.91;10317882;28;20052;-30
2022/08/20 15:57:01;;;;;;;1.13;1.10;;;;;;;22.48;54.37;96786.44;10319258;28;20046;-30
2022/08/20 16:02:43;;;;;;;1.38;1.27;;;;;;;22.39;54.53;96795.00;10321077;28;20516;-30
2022/08/20 16:07:57;;;;;;;1.73;1.40;;;;;;;22.36;54.50;96789.09;10319416;28;20039;-29
2022/08/20 16:13:01;;;;;;;1.15;1.10;;;;;;;22.34;54.42;96794.25;10319830;28;20537;-30
2022/08/20 16:18:18;;;;;;;1.20;1.10;;;;;;;22.31;54.50;96796.81;10322272;28;20035;-29
2022/08/20 16:23:27;;;;;;;1.30;1.20;;;;;;;22.31;54.56;96808.75;10321553;28;20464;-33
2022/08/20 16:28:45;;;;;;;1.42;1.30;;;;;;;22.30;54.61;96795.13;10323984;28;20039;-31
2022/08/20 16:34:10;;;;;;;1.75;1.65;;;;;;;22.55;54.82;96803.34;10320119;28;20030;-30
2022/08/20 16:39:19;;;;;;;1.40;1.30;;;;;;;22.54;54.17;96802.47;10317598;28;20125;-29
2022/08/20 16:44:19;;;;;;;1.20;1.10;;;;;;;22.42;54.45;96804.38;10324144;28;20125;-29
2022/08/20 16:49:24;;;;;;;1.38;1.27;;;;;;;22.38;54.74;96807.78;10321250;28;20088;-30
2022/08/20 16:54:26;;;;;;;1.13;1.10;;;;;;;22.33;54.33;96802.72;10323050;28;20164;-30
2022/08/20 16:59:27;;;;;;;1.50;1.40;;;;;;;22.33;54.42;96810.38;10323376;28;20121;-29
2022/08/20 17:04:27;;;;;;;1.05;1.05;;;;;;;22.30;54.41;96802.78;10319420;28;20034;-29
2022/08/20 17:09:42;;;;;;;1.10;1.10;;;;;;;22.28;54.67;96809.63;10320534;28;20031;-29
2022/08/20 17:14:51;;;;;;;1.17;1.13;;;;;;;22.33;55.20;96801.91;10320405;28;20489;-28
2022/08/20 17:19:55;;;;;;;1.42;1.33;;;;;;;22.55;55.44;96803.34;10321822;28;20034;-30
2022/08/20 17:24:56;;;;;;;1.15;1.10;;;;;;;22.52;54.32;96798.25;10327799;28;20050;-30
2022/08/20 17:30:33;;;;;;;1.30;1.20;;;;;;;22.39;54.60;96799.28;10330338;28;20036;-30
2022/08/20 17:35:39;;;;;;;1.17;1.08;;;;;;;22.33;54.57;96802.72;10316388;28;20493;-29
2022/08/20 17:40:45;;;;;;;1.00;1.00;;;;;;;22.32;54.57;96805.34;10326953;28;20070;-29
2022/08/20 17:45:47;;;;;;;1.20;1.10;;;;;;;22.29;54.72;96801.09;10325259;28;20053;-30
2022/08/20 17:50:48;;;;;;;1.10;1.10;;;;;;;22.28;54.44;96807.06;10330107;28;20046;-30
2022/08/20 17:55:54;;;;;;;1.30;1.20;;;;;;;22.26;54.74;96800.31;10323089;28;20679;-30
2022/08/20 18:00:55;;;;;;;2.42;1.30;;;;;;;22.36;54.96;96805.25;10329336;28;20493;-30
2022/08/20 18:06:09;;;;;;;1.37;1.27;;;;;;;22.55;55.64;96793.13;10327153;28;20053;-30
2022/08/20 18:11:35;;;;;;;1.38;1.27;;;;;;;22.46;54.67;96798.34;10326216;28;20497;-29
2022/08/20 18:16:41;;;;;;;1.20;1.10;;;;;;;22.37;54.54;96806.09;10323852;28;20485;-29
2022/08/20 18:22:05;;;;;;;1.08;1.08;;;;;;;22.32;54.62;96810.44;10328424;28;20293;-31
2022/08/20 18:27:12;;;;;;;1.00;1.00;;;;;;;22.30;54.69;96807.06;10323295;28;20030;-30
2022/08/20 18:32:31;;;;;;;1.33;1.23;;;;;;;22.32;54.79;96810.44;10327530;28;20125;-31
2022/08/20 18:37:31;;;;;;;1.25;1.17;;;;;;;22.31;54.73;96814.69;10323052;28;20108;-29
2022/08/20 18:42:34;;;;;;;1.20;1.10;;;;;;;22.21;54.70;96802.91;10327710;28;20037;-29
2022/08/20 18:47:35;;;;;;;1.40;1.30;;;;;;;22.45;55.16;96828.13;10325619;28;20038;-30
2022/08/20 18:52:38;;;;;;;1.17;1.07;;;;;;;22.59;54.56;96839.00;10326334;28;20053;-32
2022/08/20 18:58:10;;;;;;;0.90;0.90;;;;;;;22.47;54.41;96846.81;10326442;28;20038;-29
2022/08/20 19:03:25;;;;;;;1.13;1.02;;;;;;;22.38;54.61;96852.00;10320458;28;20393;-30
2022/08/20 19:08:37;;;;;;;1.50;1.40;;;;;;;22.35;54.71;96846.94;10323868;28;20452;-29
2022/08/20 19:13:55;;;;;;;0.95;0.95;;;;;;;22.33;54.72;96853.75;10326017;28;20133;-30
2022/08/20 19:18:55;;;;;;;1.05;1.05;;;;;;;22.32;54.75;96859.72;10320503;28;20035;-30
2022/08/20 19:24:00;;;;;;;0.93;0.93;;;;;;;22.31;54.60;96863.16;10323282;28;20042;-30
2022/08/20 19:29:09;;;;;;;1.38;1.27;;;;;;;22.31;54.93;96865.69;10325690;28;20292;-31
2022/08/20 19:34:18;;;;;;;1.23;1.13;;;;;;;22.51;55.63;96868.03;10321205;28;20034;-29
2022/08/20 19:39:21;;;;;;;1.05;1.05;;;;;;;22.53;54.42;96862.03;10321109;28;20042;-30
2022/08/20 19:44:37;;;;;;;0.80;0.80;;;;;;;22.34;54.53;96845.28;10324916;28;20042;-30
2022/08/20 19:49:54;;;;;;;1.30;1.20;;;;;;;22.38;54.67;96867.31;10320341;28;20037;-29
2022/08/20 19:54:56;;;;;;;1.50;1.40;;;;;;;22.38;54.67;96874.09;10317435;28;20026;-31
2022/08/20 20:00:00;;;;;;;1.33;1.23;;;;;;;22.30;54.80;96876.75;10324395;28;20030;-30
2022/08/20 20:05:05;;;;;;;1.30;1.20;;;;;;;22.33;54.78;96876.72;10320051;28;20034;-29
2022/08/20 20:10:09;;;;;;;1.40;1.30;;;;;;;22.32;54.82;96872.47;10322669;28;20055;-30
2022/08/20 20:15:09;;;;;;;1.20;1.10;;;;;;;22.34;54.93;96877.56;10324324;28;20033;-29
2022/08/20 20:20:51;;;;;;;1.20;1.10;;;;;;;22.54;55.18;96871.38;10322247;28;20042;-29
2022/08/20 20:26:00;;;;;;;1.05;1.05;;;;;;;22.51;54.66;96876.53;10320403;28;20030;-30
2022/08/20 20:31:07;;;;;;;1.10;1.00;;;;;;;22.40;54.75;96873.22;10324420;28;20485;-29
2022/08/20 20:36:16;;;;;;;1.50;1.40;;;;;;;22.37;54.69;96865.63;10322269;28;20039;-31
2022/08/20 20:41:20;;;;;;;1.30;1.20;;;;;;;22.35;54.78;96858.84;10320795;28;20034;-31
2022/08/20 20:46:23;;;;;;;1.40;1.30;;;;;;;22.33;54.65;96863.97;10322352;28;20081;-29
2022/08/20 20:51:28;;;;;;;1.10;1.10;;;;;;;22.31;54.52;96865.69;10328123;28;20034;-30
2022/08/20 20:56:35;;;;;;;1.20;1.10;;;;;;;22.30;54.81;96864.00;10325920;28;20051;-34
2022/08/20 21:01:38;;;;;;;1.20;1.10;;;;;;;22.40;54.96;96852.81;10326898;28;20515;-29
2022/08/20 21:06:38;;;;;;;1.20;1.10;;;;;;;22.56;54.93;96862.00;10328767;28;20289;-30
2022/08/20 21:11:39;;;;;;;0.83;0.83;;;;;;;22.48;54.79;96852.75;10331335;28;20492;-30
2022/08/20 21:16:39;;;;;;;1.30;1.20;;;;;;;22.39;54.79;96863.06;10331832;28;20365;-30
2022/08/20 21:21:41;;;;;;;1.40;1.30;;;;;;;22.37;54.71;96860.53;10333754;28;20397;-31
2022/08/20 21:26:42;;;;;;;1.48;1.38;;;;;;;22.34;54.70;96864.81;10329118;28;20173;-29
2022/08/20 21:31:44;;;;;;;1.20;1.10;;;;;;;22.33;54.75;96869.06;10328383;28;20026;-29
2022/08/20 21:36:45;;;;;;;1.58;1.40;;;;;;;22.31;54.63;96875.91;10325226;28;20037;-28
2022/08/20 21:41:46;;;;;;;1.05;1.00;;;;;;;22.31;54.65;96881.00;10329691;28;20390;-29
2022/08/20 21:46:47;;;;;;;1.85;0.98;;;;;;;22.40;55.03;96870.69;10327648;28;20026;-29
2022/08/20 21:51:48;;;;;;;1.05;1.00;;;;;;;22.55;55.00;96869.69;10328561;28;20034;-29
2022/08/20 21:57:00;;;;;;;0.70;0.70;;;;;;;22.48;54.64;96868.91;10323418;28;20655;-34
2022/08/20 22:02:00;;;;;;;1.20;1.10;;;;;;;22.37;54.61;96878.38;10326159;28;20037;-29
2022/08/20 22:07:01;;;;;;;1.10;1.10;;;;;;;22.36;54.67;96880.94;10325858;28;20447;-30
2022/08/20 22:12:03;;;;;;;0.90;0.90;;;;;;;22.30;54.70;96874.22;10329081;28;20034;-29
2022/08/20 22:17:03;;;;;;;0.95;0.95;;;;;;;22.33;54.59;96883.53;10326225;28;20038;-29
2022/08/20 22:22:04;;;;;;;1.38;1.27;;;;;;;22.30;54.70;96881.88;10326508;28;20042;-29
2022/08/20 22:27:05;;;;;;;1.15;1.10;;;;;;;22.29;54.76;96892.94;10327646;28;20045;-30
2022/08/20 22:32:06;;;;;;;0.90;0.90;;;;;;;22.41;54.93;96881.78;10326451;28;20042;-31
2022/08/20 22:37:06;;;;;;;1.13;1.02;;;;;;;22.54;54.84;96871.38;10323979;28;20039;-30
2022/08/20 22:42:07;;;;;;;0.88;0.88;;;;;;;22.47;54.61;96866.41;10328199;28;20416;-29
2022/08/20 22:47:08;;;;;;;1.13;1.10;;;;;;;22.39;54.61;96863.88;10325799;28;20065;-30
2022/08/20 22:52:10;;;;;;;0.90;0.90;;;;;;;22.34;54.61;96870.78;10323750;28;20042;-30
2022/08/20 22:57:12;;;;;;;0.82;0.82;;;;;;;22.32;54.62;96864.81;10324686;28;20057;-29
2022/08/20 23:02:18;;;;;;;1.20;1.13;;;;;;;22.27;54.75;96845.34;10326069;28;20038;-31
2022/08/20 23:07:18;;;;;;;1.00;1.00;;;;;;;22.33;54.69;96863.97;10324126;28;20448;-30
2022/08/20 23:12:18;;;;;;;1.10;1.00;;;;;;;22.31;54.58;96860.59;10327003;28;20129;-30
2022/08/20 23:17:19;;;;;;;0.97;0.90;;;;;;;22.42;54.87;96857.94;10323591;28;20512;-30
2022/08/20 23:22:19;;;;;;;0.93;0.70;;;;;;;22.54;55.07;96852.66;10324019;28;20311;-29
2022/08/20 23:27:20;;;;;;;0.80;0.80;;;;;;;22.44;54.78;96851.97;10325315;28;20034;-29
2022/08/20 23:32:21;;;;;;;0.90;0.90;;;;;;;22.37;54.52;96846.91;10322256;28;20030;-30
2022/08/20 23:37:21;;;;;;;0.93;0.93;;;;;;;22.34;54.64;96840.16;10321890;28;20035;-31